Aérodrome :
LOGIN :

S'inscrire | Disclaimer

   EN    FR    IT 

 










Légende :    VFR   VFR Marginal   IFR   IFR Intensif   IFR Très Intensif
Visi : 
Plafond : 
>= 8 km
>= 3000ft
5 à 8 km
1000 à 3000 ft
1500m à 5 km
500 à 1000 ft
800 à 1500m
200 à 500 ft
< 800m
< 200 ft
Symboles :   Orages  Brouillard  Fortes neiges  Fortes précipitations  Vent > 20 kt
SIGMETs :   Divers  Orages  Givrage  Turbulence  Onde Orograph.  Cendres Volcan.







- Altitude de l'aérodrome : 1504 ft
- Code IATA : PNA


LEPP - Noain Pamplona

DERNIER METAR :
  • 011730Z VRB02KT 9999 FEW040 SCT059 13/06 Q1018

METARs EXPIRÉS :
  • 011700Z 21004KT 180V250 9999 FEW040 SCT059 14/05 Q1018
  • 011630Z 20006KT 170V250 9999 FEW040 15/05 Q1017
  • 011600Z 18007KT 150V220 9999 FEW040 15/06 Q1017
  • 011530Z 18009KT 150V230 9999 FEW040 15/05 Q1017
  • 011500Z 18009KT 140V210 9999 FEW040 15/06 Q1017

TAF TAF LEPP
Valide du 01 à 15h jusqu'au 02 à 15h UTC


011400Z 0115/0215 18006KT 9999 FEW040 TX17/0215Z TN03/0207Z
Pas de NOTAMs connus pour ce terrain.



MET'MAP, la Météo Aéronautique d'un coup d'oeil ! - Copyright ORBIFLY Décembre 2007 - Disclaimer

ORBIFLY MET'MAP TEAM :

Programmation & Développement : Alexandra Zaïnal
Conception & Développement : Baudouin d'Aumeries
Co-Programmation & Développement : Marc-Olivier Méhu
Soutien technique & logistique : Manuel Goepfert

Contact : metmap@orbifly.com




SOURCES & CREDITS :

   NOAA